sensor_id;sensor_type;location;lat;lon;timestamp;pressure;altitude;pressure_sealevel;temperature;humidity
37792;BME280;29527;55.766;37.570;2022-10-16T00:01:10;101037.63;;;5.64;59.83
37792;BME280;29527;55.766;37.570;2022-10-16T00:03:37;101032.56;;;5.58;60.21
37792;BME280;29527;55.766;37.570;2022-10-16T00:06:03;101029.38;;;5.50;60.21
37792;BME280;29527;55.766;37.570;2022-10-16T00:08:29;101043.44;;;5.52;60.13
37792;BME280;29527;55.766;37.570;2022-10-16T00:11:00;101048.75;;;5.52;60.28
37792;BME280;29527;55.766;37.570;2022-10-16T00:13:26;101047.16;;;5.48;60.40
37792;BME280;29527;55.766;37.570;2022-10-16T00:15:55;101051.47;;;5.50;60.29
37792;BME280;29527;55.766;37.570;2022-10-16T00:18:21;101046.41;;;5.44;60.47
37792;BME280;29527;55.766;37.570;2022-10-16T00:20:46;101053.56;;;5.42;60.81
37792;BME280;29527;55.766;37.570;2022-10-16T00:23:31;101056.22;;;5.42;60.60
37792;BME280;29527;55.766;37.570;2022-10-16T00:25:58;101025.28;;;5.19;60.64
37792;BME280;29527;55.766;37.570;2022-10-16T00:28:25;101026.25;;;5.16;61.19
37792;BME280;29527;55.766;37.570;2022-10-16T00:30:50;101036.78;;;5.17;60.90
37792;BME280;29527;55.766;37.570;2022-10-16T00:33:16;101055.78;;;5.30;60.97
37792;BME280;29527;55.766;37.570;2022-10-16T00:35:42;101056.63;;;5.31;60.96
37792;BME280;29527;55.766;37.570;2022-10-16T00:38:07;101063.75;;;5.30;60.54
37792;BME280;29527;55.766;37.570;2022-10-16T00:40:33;101061.91;;;5.32;60.48
37792;BME280;29527;55.766;37.570;2022-10-16T00:42:58;101071.59;;;5.34;60.37
37792;BME280;29527;55.766;37.570;2022-10-16T00:45:24;101054.97;;;5.28;60.63
37792;BME280;29527;55.766;37.570;2022-10-16T00:47:50;101059.41;;;5.28;60.66
37792;BME280;29527;55.766;37.570;2022-10-16T00:50:27;101067.13;;;5.34;61.58
37792;BME280;29527;55.766;37.570;2022-10-16T00:52:54;101064.78;;;5.26;61.44
37792;BME280;29527;55.766;37.570;2022-10-16T00:55:20;101063.16;;;5.22;61.48
37792;BME280;29527;55.766;37.570;2022-10-16T00:57:45;101070.31;;;5.20;61.12
37792;BME280;29527;55.766;37.570;2022-10-16T01:00:19;101078.13;;;5.25;60.98
37792;BME280;29527;55.766;37.570;2022-10-16T01:02:54;101075.50;;;5.23;61.21
37792;BME280;29527;55.766;37.570;2022-10-16T01:05:22;101070.44;;;5.17;61.03
37792;BME280;29527;55.766;37.570;2022-10-16T01:10:44;101076.69;;;5.16;62.03
37792;BME280;29527;55.766;37.570;2022-10-16T01:13:21;101081.31;;;5.11;61.96
37792;BME280;29527;55.766;37.570;2022-10-16T01:16:00;101085.81;;;5.09;62.34
37792;BME280;29527;55.766;37.570;2022-10-16T01:18:37;101093.06;;;5.03;62.72
37792;BME280;29527;55.766;37.570;2022-10-16T01:21:10;101085.31;;;4.97;62.29
37792;BME280;29527;55.766;37.570;2022-10-16T01:23:49;101089.66;;;5.00;61.59
37792;BME280;29527;55.766;37.570;2022-10-16T01:28:56;101056.75;;;4.80;62.16
37792;BME280;29527;55.766;37.570;2022-10-16T01:31:26;101091.72;;;4.92;62.41
37792;BME280;29527;55.766;37.570;2022-10-16T01:34:42;101061.09;;;4.83;62.28
37792;BME280;29527;55.766;37.570;2022-10-16T01:37:09;101094.44;;;4.90;62.72
37792;BME280;29527;55.766;37.570;2022-10-16T01:39:38;101093.75;;;4.85;62.42
37792;BME280;29527;55.766;37.570;2022-10-16T01:42:11;101092.09;;;4.81;62.59
37792;BME280;29527;55.766;37.570;2022-10-16T01:44:38;101097.50;;;4.79;62.58
37792;BME280;29527;55.766;37.570;2022-10-16T01:47:06;101090.56;;;4.75;62.58
37792;BME280;29527;55.766;37.570;2022-10-16T01:49:35;101098.56;;;4.73;62.77
37792;BME280;29527;55.766;37.570;2022-10-16T01:52:06;101084.59;;;4.68;62.65
37792;BME280;29527;55.766;37.570;2022-10-16T01:54:35;101097.78;;;4.70;63.35
37792;BME280;29527;55.766;37.570;2022-10-16T01:57:04;101090.75;;;4.69;63.09
37792;BME280;29527;55.766;37.570;2022-10-16T01:59:35;101089.03;;;4.68;62.97
37792;BME280;29527;55.766;37.570;2022-10-16T02:02:06;101090.88;;;4.66;63.06
37792;BME280;29527;55.766;37.570;2022-10-16T02:04:37;101101.59;;;4.63;62.97
37792;BME280;29527;55.766;37.570;2022-10-16T02:07:03;101069.44;;;4.47;63.23
37792;BME280;29527;55.766;37.570;2022-10-16T02:09:30;101091.97;;;4.60;62.87
37792;BME280;29527;55.766;37.570;2022-10-16T02:11:59;101099.03;;;4.61;63.17
37792;BME280;29527;55.766;37.570;2022-10-16T02:14:28;101074.75;;;4.47;62.95
37792;BME280;29527;55.766;37.570;2022-10-16T02:16:54;101092.94;;;4.57;63.66
37792;BME280;29527;55.766;37.570;2022-10-16T02:19:20;101088.50;;;4.58;63.32
37792;BME280;29527;55.766;37.570;2022-10-16T02:21:49;101085.91;;;4.56;63.66
37792;BME280;29527;55.766;37.570;2022-10-16T02:28:08;101093.50;;;4.67;63.50
37792;BME280;29527;55.766;37.570;2022-10-16T02:30:54;101100.75;;;4.62;63.08
37792;BME280;29527;55.766;37.570;2022-10-16T02:33:22;101105.28;;;4.58;63.02
37792;BME280;29527;55.766;37.570;2022-10-16T02:35:50;101101.88;;;4.55;62.85
37792;BME280;29527;55.766;37.570;2022-10-16T02:38:17;101108.97;;;4.54;63.64
37792;BME280;29527;55.766;37.570;2022-10-16T02:40:45;101103.69;;;4.53;63.45
37792;BME280;29527;55.766;37.570;2022-10-16T02:43:11;101101.88;;;4.55;63.35
37792;BME280;29527;55.766;37.570;2022-10-16T02:45:36;101110.63;;;4.57;63.64
37792;BME280;29527;55.766;37.570;2022-10-16T02:48:02;101105.44;;;4.54;63.34
37792;BME280;29527;55.766;37.570;2022-10-16T02:50:28;101100.22;;;4.52;63.14
37792;BME280;29527;55.766;37.570;2022-10-16T02:52:54;101107.25;;;4.53;62.98
37792;BME280;29527;55.766;37.570;2022-10-16T02:55:19;101109.94;;;4.52;63.10
37792;BME280;29527;55.766;37.570;2022-10-16T02:57:45;101109.09;;;4.51;63.16
37792;BME280;29527;55.766;37.570;2022-10-16T03:00:13;101071.69;;;4.32;62.65
37792;BME280;29527;55.766;37.570;2022-10-16T03:02:39;101104.63;;;4.52;63.06
37792;BME280;29527;55.766;37.570;2022-10-16T03:05:05;101081.34;;;4.35;63.02
37792;BME280;29527;55.766;37.570;2022-10-16T03:07:30;101123.16;;;4.53;63.22
37792;BME280;29527;55.766;37.570;2022-10-16T03:09:56;101122.22;;;4.54;62.86
37792;BME280;29527;55.766;37.570;2022-10-16T03:12:22;101123.97;;;4.55;62.71
37792;BME280;29527;55.766;37.570;2022-10-16T03:14:47;101126.53;;;4.57;62.27
37792;BME280;29527;55.766;37.570;2022-10-16T03:17:13;101122.16;;;4.56;62.56
37792;BME280;29527;55.766;37.570;2022-10-16T03:19:39;101124.88;;;4.54;62.63
37792;BME280;29527;55.766;37.570;2022-10-16T03:22:04;101139.91;;;4.54;62.99
37792;BME280;29527;55.766;37.570;2022-10-16T03:24:30;101106.78;;;4.40;62.71
37792;BME280;29527;55.766;37.570;2022-10-16T03:26:55;101122.28;;;4.53;63.00
37792;BME280;29527;55.766;37.570;2022-10-16T03:29:21;101125.00;;;4.51;62.18
37792;BME280;29527;55.766;37.570;2022-10-16T03:31:46;101125.84;;;4.52;63.25
37792;BME280;29527;55.766;37.570;2022-10-16T03:34:13;101131.16;;;4.52;62.78
37792;BME280;29527;55.766;37.570;2022-10-16T03:36:39;101143.56;;;4.51;62.93
37792;BME280;29527;55.766;37.570;2022-10-16T03:39:04;101137.38;;;4.51;62.78
37792;BME280;29527;55.766;37.570;2022-10-16T03:41:30;101143.50;;;4.53;62.75
37792;BME280;29527;55.766;37.570;2022-10-16T03:43:55;101140.84;;;4.53;62.41
37792;BME280;29527;55.766;37.570;2022-10-16T03:46:21;101142.63;;;4.52;62.59
37792;BME280;29527;55.766;37.570;2022-10-16T03:48:46;101138.19;;;4.53;63.10
37792;BME280;29527;55.766;37.570;2022-10-16T03:51:11;101126.91;;;4.46;62.77
37792;BME280;29527;55.766;37.570;2022-10-16T03:53:37;101140.03;;;4.51;62.69
37792;BME280;29527;55.766;37.570;2022-10-16T03:56:02;101138.28;;;4.50;63.04
37792;BME280;29527;55.766;37.570;2022-10-16T03:58:28;101132.22;;;4.46;62.72
37792;BME280;29527;55.766;37.570;2022-10-16T04:00:53;101141.75;;;4.52;62.86
37792;BME280;29527;55.766;37.570;2022-10-16T04:03:19;101132.16;;;4.49;62.81
37792;BME280;29527;55.766;37.570;2022-10-16T04:05:45;101139.09;;;4.52;62.29
37792;BME280;29527;55.766;37.570;2022-10-16T04:08:10;101132.88;;;4.53;62.64
37792;BME280;29527;55.766;37.570;2022-10-16T04:10:35;101137.94;;;4.60;62.32
37792;BME280;29527;55.766;37.570;2022-10-16T04:13:01;101136.09;;;4.63;62.20
37792;BME280;29527;55.766;37.570;2022-10-16T04:15:26;101134.25;;;4.65;62.21
37792;BME280;29527;55.766;37.570;2022-10-16T04:17:52;101135.06;;;4.67;62.04
37792;BME280;29527;55.766;37.570;2022-10-16T04:20:18;101133.22;;;4.69;62.56
37792;BME280;29527;55.766;37.570;2022-10-16T04:22:44;101122.72;;;4.66;62.16
37792;BME280;29527;55.766;37.570;2022-10-16T04:25:10;101138.13;;;4.80;61.42
37792;BME280;29527;55.766;37.570;2022-10-16T04:27:38;101142.59;;;4.79;61.88
37792;BME280;29527;55.766;37.570;2022-10-16T04:30:05;101158.13;;;4.90;61.73
37792;BME280;29527;55.766;37.570;2022-10-16T04:32:30;101143.09;;;5.62;59.78
37792;BME280;29527;55.766;37.570;2022-10-16T04:34:55;101148.50;;;7.31;55.02
37792;BME280;29527;55.766;37.570;2022-10-16T04:37:25;101141.22;;;8.83;50.97
37792;BME280;29527;55.766;37.570;2022-10-16T04:39:51;101142.31;;;9.46;48.62
37792;BME280;29527;55.766;37.570;2022-10-16T04:42:16;101153.53;;;9.53;47.86
37792;BME280;29527;55.766;37.570;2022-10-16T04:44:42;101157.50;;;9.46;48.08
37792;BME280;29527;55.766;37.570;2022-10-16T04:47:07;101148.13;;;9.55;47.93
37792;BME280;29527;55.766;37.570;2022-10-16T04:49:33;101150.59;;;9.42;47.59
37792;BME280;29527;55.766;37.570;2022-10-16T04:51:58;101147.78;;;8.94;48.89
37792;BME280;29527;55.766;37.570;2022-10-16T04:54:24;101143.59;;;8.35;50.30
37792;BME280;29527;55.766;37.570;2022-10-16T04:56:49;101154.78;;;7.87;51.53
37792;BME280;29527;55.766;37.570;2022-10-16T04:59:17;101161.34;;;8.36;51.11
37792;BME280;29527;55.766;37.570;2022-10-16T05:01:44;101153.72;;;10.61;45.79
37792;BME280;29527;55.766;37.570;2022-10-16T05:04:10;101148.44;;;13.11;40.28
37792;BME280;29527;55.766;37.570;2022-10-16T05:06:36;101142.28;;;14.94;36.20
37792;BME280;29527;55.766;37.570;2022-10-16T05:09:04;101147.00;;;16.48;33.45
37792;BME280;29527;55.766;37.570;2022-10-16T05:11:30;101136.56;;;17.70;31.33
37792;BME280;29527;55.766;37.570;2022-10-16T05:13:55;101152.91;;;18.88;29.33
37792;BME280;29527;55.766;37.570;2022-10-16T05:16:21;101157.09;;;19.96;27.51
37792;BME280;29527;55.766;37.570;2022-10-16T05:18:46;101146.75;;;20.90;26.01
37792;BME280;29527;55.766;37.570;2022-10-16T05:21:11;101152.50;;;21.74;24.68
37792;BME280;29527;55.766;37.570;2022-10-16T05:23:37;101134.91;;;22.45;23.95
37792;BME280;29527;55.766;37.570;2022-10-16T05:26:03;101143.22;;;23.26;22.56
37792;BME280;29527;55.766;37.570;2022-10-16T05:28:29;101155.19;;;23.97;21.96
37792;BME280;29527;55.766;37.570;2022-10-16T05:30:56;101160.81;;;24.73;20.68
37792;BME280;29527;55.766;37.570;2022-10-16T05:33:23;101128.09;;;25.40;19.81
37792;BME280;29527;55.766;37.570;2022-10-16T05:35:49;101160.00;;;26.08;19.06
37792;BME280;29527;55.766;37.570;2022-10-16T05:38:18;101167.56;;;26.43;18.73
37792;BME280;29527;55.766;37.570;2022-10-16T05:40:43;101153.88;;;27.00;17.62
37792;BME280;29527;55.766;37.570;2022-10-16T05:43:09;101156.56;;;27.57;17.38
37792;BME280;29527;55.766;37.570;2022-10-16T05:45:34;101148.75;;;28.16;16.42
37792;BME280;29527;55.766;37.570;2022-10-16T05:48:00;101158.34;;;28.60;16.08
37792;BME280;29527;55.766;37.570;2022-10-16T05:50:26;101139.47;;;28.91;15.66
37792;BME280;29527;55.766;37.570;2022-10-16T05:52:52;101156.94;;;29.50;15.13
37792;BME280;29527;55.766;37.570;2022-10-16T05:55:18;101157.25;;;29.81;14.38
37792;BME280;29527;55.766;37.570;2022-10-16T05:57:43;101158.66;;;30.04;14.32
37792;BME280;29527;55.766;37.570;2022-10-16T06:00:09;101162.31;;;30.30;14.21
37792;BME280;29527;55.766;37.570;2022-10-16T06:02:35;101164.97;;;30.75;14.00
37792;BME280;29527;55.766;37.570;2022-10-16T06:05:00;101164.09;;;31.00;13.68
37792;BME280;29527;55.766;37.570;2022-10-16T06:07:25;101163.00;;;31.45;12.75
37792;BME280;29527;55.766;37.570;2022-10-16T06:09:52;101164.91;;;31.63;13.12
37792;BME280;29527;55.766;37.570;2022-10-16T06:12:18;101167.38;;;31.90;12.77
37792;BME280;29527;55.766;37.570;2022-10-16T06:14:44;101161.88;;;32.33;12.27
37792;BME280;29527;55.766;37.570;2022-10-16T06:17:12;101161.78;;;32.52;11.89
37792;BME280;29527;55.766;37.570;2022-10-16T06:19:38;101166.41;;;32.70;11.64
37792;BME280;29527;55.766;37.570;2022-10-16T06:22:03;101160.22;;;32.79;11.75
37792;BME280;29527;55.766;37.570;2022-10-16T06:24:29;101163.31;;;32.90;11.44
37792;BME280;29527;55.766;37.570;2022-10-16T06:26:54;101145.16;;;32.87;11.73
37792;BME280;29527;55.766;37.570;2022-10-16T06:29:20;101165.56;;;33.29;11.55
37792;BME280;29527;55.766;37.570;2022-10-16T06:31:45;101164.53;;;33.59;10.90
37792;BME280;29527;55.766;37.570;2022-10-16T06:34:11;101168.28;;;33.64;11.01
37792;BME280;29527;55.766;37.570;2022-10-16T06:36:38;101166.50;;;33.58;10.72
37792;BME280;29527;55.766;37.570;2022-10-16T06:39:04;101175.41;;;33.60;11.13
37792;BME280;29527;55.766;37.570;2022-10-16T06:41:30;101170.47;;;33.62;10.86
37792;BME280;29527;55.766;37.570;2022-10-16T06:43:56;101166.72;;;33.98;10.72
37792;BME280;29527;55.766;37.570;2022-10-16T06:46:23;101173.03;;;34.22;10.49
37792;BME280;29527;55.766;37.570;2022-10-16T06:48:49;101173.19;;;34.32;10.26
37792;BME280;29527;55.766;37.570;2022-10-16T06:51:20;101172.16;;;34.51;10.15
37792;BME280;29527;55.766;37.570;2022-10-16T06:53:48;101174.25;;;34.77;10.23
37792;BME280;29527;55.766;37.570;2022-10-16T06:56:19;101174.31;;;35.00;10.07
37792;BME280;29527;55.766;37.570;2022-10-16T06:58:45;101173.41;;;35.11;9.96
37792;BME280;29527;55.766;37.570;2022-10-16T07:01:11;101176.88;;;35.01;9.56
37792;BME280;29527;55.766;37.570;2022-10-16T07:03:38;101182.78;;;34.71;10.22
37792;BME280;29527;55.766;37.570;2022-10-16T07:06:05;101175.53;;;34.53;9.95
37792;BME280;29527;55.766;37.570;2022-10-16T07:08:32;101182.81;;;34.42;10.19
37792;BME280;29527;55.766;37.570;2022-10-16T07:10:59;101179.47;;;34.11;10.37
37792;BME280;29527;55.766;37.570;2022-10-16T07:13:25;101168.28;;;33.93;10.19
37792;BME280;29527;55.766;37.570;2022-10-16T07:15:50;101164.16;;;34.08;10.32
37792;BME280;29527;55.766;37.570;2022-10-16T07:18:16;101177.84;;;34.27;9.85
37792;BME280;29527;55.766;37.570;2022-10-16T07:20:41;101175.59;;;34.12;10.26
37792;BME280;29527;55.766;37.570;2022-10-16T07:23:07;101170.47;;;33.91;10.15
37792;BME280;29527;55.766;37.570;2022-10-16T07:25:32;101175.28;;;33.67;10.41
37792;BME280;29527;55.766;37.570;2022-10-16T07:27:57;101180.31;;;33.05;10.56
37792;BME280;29527;55.766;37.570;2022-10-16T07:30:23;101168.75;;;31.81;11.88
37792;BME280;29527;55.766;37.570;2022-10-16T07:32:48;101169.00;;;29.70;13.27
37792;BME280;29527;55.766;37.570;2022-10-16T07:35:14;101177.84;;;27.13;15.15
37792;BME280;29527;55.766;37.570;2022-10-16T07:37:39;101177.63;;;24.70;17.35
37792;BME280;29527;55.766;37.570;2022-10-16T07:40:09;101187.22;;;22.32;19.96
37792;BME280;29527;55.766;37.570;2022-10-16T07:42:34;101185.72;;;20.36;22.46
37792;BME280;29527;55.766;37.570;2022-10-16T07:45:00;101182.50;;;18.71;24.64
37792;BME280;29527;55.766;37.570;2022-10-16T07:47:25;101181.81;;;17.48;26.35
37792;BME280;29527;55.766;37.570;2022-10-16T07:49:51;101182.88;;;16.50;28.27
37792;BME280;29527;55.766;37.570;2022-10-16T07:52:16;101188.31;;;15.84;29.20
37792;BME280;29527;55.766;37.570;2022-10-16T07:54:42;101181.69;;;15.31;30.15
37792;BME280;29527;55.766;37.570;2022-10-16T07:57:07;101186.31;;;14.95;30.94
37792;BME280;29527;55.766;37.570;2022-10-16T07:59:33;101189.63;;;14.62;31.81
37792;BME280;29527;55.766;37.570;2022-10-16T08:01:58;101183.22;;;14.28;32.47
37792;BME280;29527;55.766;37.570;2022-10-16T08:04:23;101190.47;;;14.14;33.03
37792;BME280;29527;55.766;37.570;2022-10-16T08:06:49;101186.91;;;13.89;33.52
37792;BME280;29527;55.766;37.570;2022-10-16T08:09:15;101191.00;;;13.82;33.82
37792;BME280;29527;55.766;37.570;2022-10-16T08:11:40;101188.97;;;13.73;33.84
37792;BME280;29527;55.766;37.570;2022-10-16T08:14:05;101194.50;;;13.58;34.53
37792;BME280;29527;55.766;37.570;2022-10-16T08:16:31;101189.88;;;13.47;34.86
37792;BME280;29527;55.766;37.570;2022-10-16T08:18:56;101192.03;;;13.42;34.78
37792;BME280;29527;55.766;37.570;2022-10-16T08:21:22;101177.81;;;13.40;34.98
37792;BME280;29527;55.766;37.570;2022-10-16T08:23:49;101188.78;;;13.37;35.14
37792;BME280;29527;55.766;37.570;2022-10-16T08:26:15;101182.44;;;13.25;35.47
37792;BME280;29527;55.766;37.570;2022-10-16T08:28:40;101174.94;;;13.17;35.57
37792;BME280;29527;55.766;37.570;2022-10-16T08:31:15;101187.50;;;13.17;35.08
37792;BME280;29527;55.766;37.570;2022-10-16T08:33:43;101182.84;;;12.93;36.06
37792;BME280;29527;55.766;37.570;2022-10-16T08:36:10;101188.44;;;12.90;36.46
37792;BME280;29527;55.766;37.570;2022-10-16T08:38:35;101184.25;;;12.86;36.60
37792;BME280;29527;55.766;37.570;2022-10-16T08:49:30;101189.72;;;12.84;36.52
37792;BME280;29527;55.766;37.570;2022-10-16T08:51:56;101172.50;;;12.74;37.03
37792;BME280;29527;55.766;37.570;2022-10-16T08:56:56;101183.28;;;12.87;36.85
37792;BME280;29527;55.766;37.570;2022-10-16T08:59:22;101180.38;;;12.90;36.76
37792;BME280;29527;55.766;37.570;2022-10-16T09:01:50;101188.00;;;12.96;36.64
37792;BME280;29527;55.766;37.570;2022-10-16T09:06:56;101166.84;;;12.91;36.64
37792;BME280;29527;55.766;37.570;2022-10-16T09:17:57;101187.50;;;13.04;36.47
37792;BME280;29527;55.766;37.570;2022-10-16T09:23:30;101173.19;;;13.03;36.63
37792;BME280;29527;55.766;37.570;2022-10-16T09:25:58;101161.13;;;12.96;36.80
37792;BME280;29527;55.766;37.570;2022-10-16T09:28:24;101157.81;;;12.92;36.83
37792;BME280;29527;55.766;37.570;2022-10-16T09:30:50;101176.94;;;13.01;36.83
37792;BME280;29527;55.766;37.570;2022-10-16T09:33:17;101170.50;;;13.03;36.98
37792;BME280;29527;55.766;37.570;2022-10-16T09:35:45;101183.75;;;13.06;36.96
37792;BME280;29527;55.766;37.570;2022-10-16T09:38:26;101165.53;;;13.23;36.33
37792;BME280;29527;55.766;37.570;2022-10-16T09:40:52;101161.34;;;13.06;36.37
37792;BME280;29527;55.766;37.570;2022-10-16T09:43:41;101168.44;;;13.20;36.22
37792;BME280;29527;55.766;37.570;2022-10-16T09:46:30;101164.69;;;13.23;35.97
37792;BME280;29527;55.766;37.570;2022-10-16T09:49:01;101165.22;;;13.15;36.26
37792;BME280;29527;55.766;37.570;2022-10-16T09:51:37;101171.88;;;13.22;36.63
37792;BME280;29527;55.766;37.570;2022-10-16T09:56:33;101159.19;;;13.24;36.06
37792;BME280;29527;55.766;37.570;2022-10-16T09:59:02;101158.88;;;13.29;36.09
37792;BME280;29527;55.766;37.570;2022-10-16T10:01:39;101155.22;;;13.43;35.39
37792;BME280;29527;55.766;37.570;2022-10-16T10:04:06;101141.91;;;13.28;35.49
37792;BME280;29527;55.766;37.570;2022-10-16T10:06:52;101150.19;;;13.51;35.28
37792;BME280;29527;55.766;37.570;2022-10-16T10:12:00;101152.31;;;13.46;35.15
37792;BME280;29527;55.766;37.570;2022-10-16T10:14:31;101152.44;;;13.44;35.11
37792;BME280;29527;55.766;37.570;2022-10-16T10:17:25;101149.63;;;13.46;35.30
37792;BME280;29527;55.766;37.570;2022-10-16T10:19:53;101154.59;;;13.39;35.35
37792;BME280;29527;55.766;37.570;2022-10-16T10:22:23;101135.41;;;13.31;35.40
37792;BME280;29527;55.766;37.570;2022-10-16T10:25:12;101147.16;;;13.43;35.33
37792;BME280;29527;55.766;37.570;2022-10-16T10:27:43;101136.59;;;13.40;35.32
37792;BME280;29527;55.766;37.570;2022-10-16T10:33:21;101101.31;;;13.31;35.09
37792;BME280;29527;55.766;37.570;2022-10-16T10:35:59;101137.91;;;13.47;35.22
37792;BME280;29527;55.766;37.570;2022-10-16T10:43:56;101138.88;;;13.46;35.31
37792;BME280;29527;55.766;37.570;2022-10-16T10:46:34;101143.41;;;13.45;35.36
37792;BME280;29527;55.766;37.570;2022-10-16T10:57:21;101129.06;;;13.58;35.25
37792;BME280;29527;55.766;37.570;2022-10-16T11:02:37;101115.59;;;13.58;35.56
37792;BME280;29527;55.766;37.570;2022-10-16T11:08:00;101127.06;;;13.73;35.28
37792;BME280;29527;55.766;37.570;2022-10-16T11:10:54;101127.25;;;13.83;35.04
37792;BME280;29527;55.766;37.570;2022-10-16T11:16:32;101131.50;;;13.61;35.35
37792;BME280;29527;55.766;37.570;2022-10-16T11:19:25;101101.44;;;13.43;35.69
37792;BME280;29527;55.766;37.570;2022-10-16T11:27:40;101083.59;;;13.16;36.28
37792;BME280;29527;55.766;37.570;2022-10-16T11:30:12;101113.44;;;13.37;36.03
37792;BME280;29527;55.766;37.570;2022-10-16T11:33:04;101121.66;;;13.48;35.92
37792;BME280;29527;55.766;37.570;2022-10-16T11:35:51;101122.41;;;13.38;36.21
37792;BME280;29527;55.766;37.570;2022-10-16T11:38:29;101118.75;;;13.26;36.48
37792;BME280;29527;55.766;37.570;2022-10-16T11:41:00;101101.22;;;13.20;36.54
37792;BME280;29527;55.766;37.570;2022-10-16T11:43:53;101109.19;;;13.21;36.71
37792;BME280;29527;55.766;37.570;2022-10-16T11:46:24;101111.78;;;13.10;36.60
37792;BME280;29527;55.766;37.570;2022-10-16T11:49:15;101107.03;;;13.14;36.98
37792;BME280;29527;55.766;37.570;2022-10-16T11:54:41;101110.94;;;13.10;37.44
37792;BME280;29527;55.766;37.570;2022-10-16T11:57:19;101068.25;;;12.79;37.14
37792;BME280;29527;55.766;37.570;2022-10-16T12:00:06;101104.16;;;13.04;37.12
37792;BME280;29527;55.766;37.570;2022-10-16T12:03:22;101100.41;;;12.94;37.30
37792;BME280;29527;55.766;37.570;2022-10-16T12:10:34;101107.59;;;12.80;37.83
37792;BME280;29527;55.766;37.570;2022-10-16T12:15:47;101109.09;;;12.84;37.59
37792;BME280;29527;55.766;37.570;2022-10-16T12:18:23;101096.31;;;12.88;37.51
37792;BME280;29527;55.766;37.570;2022-10-16T12:20:59;101103.50;;;12.87;37.86
37792;BME280;29527;55.766;37.570;2022-10-16T12:23:30;101097.72;;;12.81;37.76
37792;BME280;29527;55.766;37.570;2022-10-16T12:25:57;101087.94;;;12.80;37.90
37792;BME280;29527;55.766;37.570;2022-10-16T12:28:28;101093.41;;;12.78;38.10
37792;BME280;29527;55.766;37.570;2022-10-16T12:31:00;101082.56;;;12.80;37.74
37792;BME280;29527;55.766;37.570;2022-10-16T12:33:29;101085.88;;;12.70;37.89
37792;BME280;29527;55.766;37.570;2022-10-16T12:35:56;101081.25;;;12.72;37.82
37792;BME280;29527;55.766;37.570;2022-10-16T12:38:29;101082.97;;;12.73;37.95
37792;BME280;29527;55.766;37.570;2022-10-16T12:41:01;101069.66;;;12.72;37.77
37792;BME280;29527;55.766;37.570;2022-10-16T12:43:44;101082.00;;;12.74;37.76
37792;BME280;29527;55.766;37.570;2022-10-16T12:48:36;101082.09;;;12.60;38.14
37792;BME280;29527;55.766;37.570;2022-10-16T12:59:51;101084.06;;;12.71;37.80
37792;BME280;29527;55.766;37.570;2022-10-16T13:10:47;101080.69;;;12.41;38.51
37792;BME280;29527;55.766;37.570;2022-10-16T13:13:53;101078.66;;;12.45;38.53
37792;BME280;29527;55.766;37.570;2022-10-16T13:24:59;101082.06;;;12.34;38.54
37792;BME280;29527;55.766;37.570;2022-10-16T13:27:37;101077.88;;;12.30;38.57
37792;BME280;29527;55.766;37.570;2022-10-16T13:30:28;101084.00;;;12.32;38.56
37792;BME280;29527;55.766;37.570;2022-10-16T13:33:00;101081.94;;;12.23;39.06
37792;BME280;29527;55.766;37.570;2022-10-16T13:35:32;101076.00;;;12.17;39.22
37792;BME280;29527;55.766;37.570;2022-10-16T13:38:19;101068.38;;;12.11;38.66
37792;BME280;29527;55.766;37.570;2022-10-16T13:40:59;101085.78;;;12.18;39.01
37792;BME280;29527;55.766;37.570;2022-10-16T13:43:41;101085.44;;;12.10;39.33
37792;BME280;29527;55.766;37.570;2022-10-16T13:46:14;101085.97;;;12.02;39.69
37792;BME280;29527;55.766;37.570;2022-10-16T13:48:41;101079.88;;;11.99;39.90
37792;BME280;29527;55.766;37.570;2022-10-16T13:51:16;101070.69;;;12.03;39.97
37792;BME280;29527;55.766;37.570;2022-10-16T13:53:42;101068.69;;;11.92;40.32
37792;BME280;29527;55.766;37.570;2022-10-16T13:56:16;101071.91;;;11.84;40.35
37792;BME280;29527;55.766;37.570;2022-10-16T13:58:42;101074.97;;;11.78;40.40
37792;BME280;29527;55.766;37.570;2022-10-16T14:01:20;101078.53;;;11.78;40.35
37792;BME280;29527;55.766;37.570;2022-10-16T14:03:49;101045.56;;;11.49;40.90
37792;BME280;29527;55.766;37.570;2022-10-16T14:06:18;101074.06;;;11.65;41.00
37792;BME280;29527;55.766;37.570;2022-10-16T14:08:53;101083.38;;;11.59;40.85
37792;BME280;29527;55.766;37.570;2022-10-16T14:11:22;101085.59;;;11.52;41.08
37792;BME280;29527;55.766;37.570;2022-10-16T14:13:49;101085.16;;;11.45;41.27
37792;BME280;29527;55.766;37.570;2022-10-16T14:16:18;101087.63;;;11.48;41.18
37792;BME280;29527;55.766;37.570;2022-10-16T14:19:24;101082.81;;;11.54;40.84
37792;BME280;29527;55.766;37.570;2022-10-16T14:21:51;101080.28;;;11.38;41.68
37792;BME280;29527;55.766;37.570;2022-10-16T14:26:51;101078.28;;;11.27;41.75
37792;BME280;29527;55.766;37.570;2022-10-16T14:29:20;101081.03;;;11.25;41.73
37792;BME280;29527;55.766;37.570;2022-10-16T14:31:56;101082.56;;;11.29;41.68
37792;BME280;29527;55.766;37.570;2022-10-16T14:34:24;101087.47;;;11.23;42.14
37792;BME280;29527;55.766;37.570;2022-10-16T14:36:50;101077.50;;;11.10;42.36
37792;BME280;29527;55.766;37.570;2022-10-16T14:39:20;101086.31;;;11.12;42.39
37792;BME280;29527;55.766;37.570;2022-10-16T14:41:51;101056.19;;;10.94;42.25
37792;BME280;29527;55.766;37.570;2022-10-16T14:44:18;101090.44;;;11.03;42.33
37792;BME280;29527;55.766;37.570;2022-10-16T14:46:45;101084.31;;;11.01;42.60